createdAt,value
2019-05-21T00:00:24.547Z,11.37
2019-05-21T00:02:52.883Z,11.23
2019-05-21T00:05:21.260Z,12.17
2019-05-21T00:07:49.789Z,11.10
2019-05-21T00:10:18.129Z,11.60
2019-05-21T00:12:46.509Z,11.10
2019-05-21T00:15:15.293Z,11.50
2019-05-21T00:17:43.675Z,12.27
2019-05-21T00:20:12.111Z,12.73
2019-05-21T00:22:40.550Z,12.03
2019-05-21T00:25:09.052Z,12.27
2019-05-21T00:27:37.373Z,11.57
2019-05-21T00:30:17.084Z,11.57
2019-05-21T00:32:56.853Z,11.57
2019-05-21T00:35:44.609Z,11.50
2019-05-21T00:38:24.134Z,11.93
2019-05-21T00:41:03.882Z,11.53
2019-05-21T00:43:40.700Z,11.90
2019-05-21T00:46:09.195Z,11.47
2019-05-21T00:48:37.571Z,11.17
2019-05-21T00:51:05.953Z,11.57
2019-05-21T00:53:34.416Z,11.80
2019-05-21T00:56:02.783Z,11.37
2019-05-21T00:58:31.132Z,11.73
2019-05-21T01:00:59.589Z,12.50
2019-05-21T01:03:27.999Z,12.30
2019-05-21T01:05:56.316Z,13.43
2019-05-21T01:08:25.071Z,11.83
2019-05-21T01:10:53.745Z,12.63
2019-05-21T01:13:22.110Z,12.50
2019-05-21T01:15:50.667Z,12.00
2019-05-21T01:18:18.984Z,12.53
2019-05-21T01:20:47.321Z,12.47
2019-05-21T01:23:15.804Z,12.10
2019-05-21T01:25:44.297Z,11.00
2019-05-21T01:28:12.615Z,12.20
2019-05-21T01:30:41.433Z,12.83
2019-05-21T01:33:09.928Z,12.20
2019-05-21T01:35:38.254Z,12.47
2019-05-21T01:38:06.707Z,11.67
2019-05-21T01:40:35.090Z,11.60
2019-05-21T01:43:03.882Z,11.57
2019-05-21T01:45:32.324Z,10.00
2019-05-21T01:48:00.662Z,11.80
2019-05-21T01:50:29.015Z,11.67
2019-05-21T01:52:57.467Z,11.47
2019-05-21T01:55:25.813Z,11.80
2019-05-21T01:57:54.143Z,11.60
2019-05-21T02:00:22.561Z,10.60
2019-05-21T02:02:50.930Z,12.00
2019-05-21T02:05:32.126Z,10.60
2019-05-21T02:07:48.006Z,11.50
2019-05-21T02:10:16.378Z,11.37
2019-05-21T02:12:44.726Z,11.37
2019-05-21T02:15:13.259Z,11.20
2019-05-21T02:17:41.606Z,10.33
2019-05-21T02:20:09.981Z,11.53
2019-05-21T02:22:38.433Z,10.97
2019-05-21T02:25:06.829Z,11.50
2019-05-21T02:27:35.135Z,12.27
2019-05-21T02:30:04.221Z,11.27
2019-05-21T02:32:32.247Z,11.23
2019-05-21T02:35:00.601Z,10.87
2019-05-21T02:37:29.048Z,10.07
2019-05-21T02:39:57.402Z,9.73
2019-05-21T02:42:25.759Z,10.17
2019-05-21T02:44:54.798Z,11.07
2019-05-21T02:47:23.050Z,10.80
2019-05-21T02:49:51.432Z,9.47
2019-05-21T02:52:19.893Z,10.60
2019-05-21T02:54:48.259Z,11.10
2019-05-21T02:57:16.645Z,9.60
2019-05-21T02:59:45.170Z,9.83
2019-05-21T03:02:17.953Z,10.37
2019-05-21T03:04:46.574Z,10.47
2019-05-21T03:07:17.822Z,10.47
2019-05-21T03:09:47.775Z,10.60
2019-05-21T03:12:16.321Z,11.37
2019-05-21T03:14:44.780Z,10.33
2019-05-21T03:17:13.175Z,9.20
2019-05-21T03:19:41.505Z,9.83
2019-05-21T03:22:09.959Z,9.67
2019-05-21T03:24:38.946Z,9.83
2019-05-21T03:27:07.342Z,9.87
2019-05-21T03:29:35.703Z,9.83
2019-05-21T03:32:04.038Z,9.10
2019-05-21T03:34:32.434Z,9.37
2019-05-21T03:37:00.842Z,8.97
2019-05-21T03:39:29.284Z,9.53
2019-05-21T03:41:57.612Z,9.13
2019-05-21T03:44:25.995Z,9.20
2019-05-21T03:46:54.371Z,9.20
2019-05-21T03:49:22.879Z,9.40
2019-05-21T03:51:51.228Z,8.23
2019-05-21T03:54:19.734Z,8.53
2019-05-21T03:56:48.073Z,9.00
2019-05-21T03:59:16.463Z,9.30
2019-05-21T04:01:44.802Z,8.27
2019-05-21T04:04:13.130Z,8.10
2019-05-21T04:06:51.258Z,8.80
2019-05-21T04:09:09.946Z,9.67
2019-05-21T04:11:38.738Z,8.47
2019-05-21T04:14:07.100Z,8.60
2019-05-21T04:16:39.694Z,8.43
2019-05-21T04:19:12.655Z,7.70
2019-05-21T04:21:41.348Z,8.20
2019-05-21T04:24:09.827Z,8.07
2019-05-21T04:26:38.051Z,8.17
2019-05-21T04:29:06.567Z,7.40
2019-05-21T04:31:35.027Z,7.70
2019-05-21T04:34:03.446Z,7.63
2019-05-21T04:36:31.755Z,8.10
2019-05-21T04:39:00.080Z,7.87
2019-05-21T04:41:28.433Z,8.20
2019-05-21T04:43:57.051Z,7.83
2019-05-21T04:46:25.397Z,7.97
2019-05-21T04:48:53.734Z,7.40
2019-05-21T04:51:22.066Z,7.37
2019-05-21T04:53:50.473Z,8.10
2019-05-21T04:56:18.838Z,7.67
2019-05-21T04:58:47.237Z,7.70
2019-05-21T05:01:15.625Z,7.60
2019-05-21T05:03:43.941Z,7.93
2019-05-21T05:06:12.398Z,6.93
2019-05-21T05:08:40.734Z,7.30
2019-05-21T05:11:09.061Z,7.17
2019-05-21T05:13:37.599Z,7.53
2019-05-21T05:16:06.003Z,7.20
2019-05-21T05:18:34.401Z,6.93
2019-05-21T05:21:02.932Z,8.10
2019-05-21T05:23:31.278Z,8.17
2019-05-21T05:25:59.600Z,7.77
2019-05-21T05:28:28.183Z,6.93
2019-05-21T05:30:56.523Z,6.60
2019-05-21T05:33:24.970Z,6.60
2019-05-21T05:35:53.290Z,6.73
2019-05-21T05:38:21.629Z,6.13
2019-05-21T05:40:49.968Z,6.20
2019-05-21T05:43:20.614Z,6.83
2019-05-21T05:45:46.748Z,6.40
2019-05-21T05:48:15.097Z,6.70
2019-05-21T05:50:43.734Z,6.37
2019-05-21T05:53:12.090Z,7.13
2019-05-21T05:55:40.411Z,6.50
2019-05-21T05:58:09.031Z,6.03
2019-05-21T06:00:37.377Z,5.50
2019-05-21T06:03:05.936Z,6.10
2019-05-21T06:05:34.461Z,5.73
2019-05-21T06:08:02.788Z,5.60
2019-05-21T06:10:31.180Z,5.80
2019-05-21T06:12:59.639Z,6.20
2019-05-21T06:15:27.978Z,5.43
2019-05-21T06:17:56.380Z,5.73
2019-05-21T06:20:24.937Z,5.63
2019-05-21T06:22:53.338Z,5.93
2019-05-21T06:25:21.769Z,4.80
2019-05-21T06:27:50.329Z,5.30
2019-05-21T06:30:18.737Z,5.37
2019-05-21T06:32:47.108Z,4.70
2019-05-21T06:35:15.652Z,4.60
2019-05-21T06:37:43.977Z,5.27
2019-05-21T06:40:12.449Z,4.80
2019-05-21T06:42:40.972Z,4.90
2019-05-21T06:45:09.458Z,4.47
2019-05-21T06:47:37.820Z,4.77
2019-05-21T06:50:06.345Z,4.63
2019-05-21T06:52:34.704Z,4.40
2019-05-21T06:55:03.110Z,4.70
2019-05-21T06:57:31.526Z,4.67
2019-05-21T06:59:59.923Z,4.80
2019-05-21T07:02:28.290Z,4.77
2019-05-21T07:04:56.804Z,4.43
2019-05-21T07:07:25.187Z,4.60
2019-05-21T07:09:53.509Z,4.50
2019-05-21T07:12:21.997Z,4.67
2019-05-21T07:14:50.365Z,4.37
2019-05-21T07:17:18.710Z,4.43
2019-05-21T07:19:47.509Z,4.40
2019-05-21T07:22:15.899Z,4.60
2019-05-21T07:24:44.288Z,4.23
2019-05-21T07:27:13.115Z,4.10
2019-05-21T07:29:41.493Z,4.13
2019-05-21T07:32:09.917Z,5.17
2019-05-21T07:34:38.364Z,4.00
2019-05-21T07:37:07.384Z,3.83
2019-05-21T07:39:35.793Z,4.60
2019-05-21T07:42:04.628Z,4.90
2019-05-21T07:44:33.132Z,3.67
2019-05-21T07:47:01.495Z,4.37
2019-05-21T07:49:30.069Z,4.20
2019-05-21T07:51:58.401Z,3.90
2019-05-21T07:54:28.159Z,3.77
2019-05-21T07:56:55.218Z,4.30
2019-05-21T07:59:23.642Z,3.83
2019-05-21T08:01:51.986Z,4.27
2019-05-21T08:04:20.411Z,4.70
2019-05-21T08:06:48.852Z,4.03
2019-05-21T08:09:17.176Z,3.63
2019-05-21T08:11:47.085Z,4.20
2019-05-21T08:14:20.598Z,3.73
2019-05-21T08:16:49.623Z,4.00
2019-05-21T08:19:17.969Z,3.57
2019-05-21T08:21:46.456Z,4.00
2019-05-21T08:24:15.073Z,3.90
2019-05-21T08:26:43.433Z,4.10
2019-05-21T08:29:11.867Z,4.07
2019-05-21T08:31:40.633Z,4.53
2019-05-21T08:34:08.985Z,4.03
2019-05-21T08:36:37.349Z,4.20
2019-05-21T08:39:07.109Z,3.60
2019-05-21T08:41:35.475Z,3.90
2019-05-21T08:44:03.893Z,3.80
2019-05-21T08:46:32.662Z,4.37
2019-05-21T08:49:01.005Z,3.63
2019-05-21T08:51:29.496Z,3.60
2019-05-21T08:53:58.360Z,3.90
2019-05-21T08:56:26.681Z,3.87
2019-05-21T08:58:55.057Z,3.73
2019-05-21T09:01:23.453Z,3.50
2019-05-21T09:03:52.266Z,3.50
2019-05-21T09:06:20.646Z,3.80
2019-05-21T09:08:49.672Z,3.60
2019-05-21T09:11:18.039Z,3.67
2019-05-21T09:13:46.373Z,3.47
2019-05-21T09:16:14.823Z,4.30
2019-05-21T09:18:43.266Z,3.13
2019-05-21T09:21:11.607Z,3.77
2019-05-21T09:23:40.442Z,3.37
2019-05-21T09:26:08.813Z,3.37
2019-05-21T09:28:37.186Z,3.57
2019-05-21T09:31:05.687Z,3.83
2019-05-21T09:33:34.068Z,3.10
2019-05-21T09:36:02.426Z,4.13
2019-05-21T09:38:31.007Z,3.77
2019-05-21T09:40:59.335Z,4.77
2019-05-21T09:43:27.659Z,4.83
2019-05-21T09:45:56.184Z,3.80
2019-05-21T09:48:24.494Z,3.93
2019-05-21T09:50:52.845Z,3.73
2019-05-21T09:53:21.198Z,3.47
2019-05-21T09:55:49.889Z,3.87
2019-05-21T09:58:32.519Z,4.47
2019-05-21T10:01:07.066Z,3.93
2019-05-21T10:03:37.219Z,4.20
2019-05-21T10:06:05.603Z,4.10
2019-05-21T10:08:37.139Z,3.10
2019-05-21T10:11:02.929Z,3.30
2019-05-21T10:13:31.455Z,4.17
2019-05-21T10:16:01.420Z,3.57
2019-05-21T10:18:28.193Z,3.97
2019-05-21T10:20:56.623Z,3.83
2019-05-21T10:23:26.023Z,3.90
2019-05-21T10:25:54.369Z,4.00
2019-05-21T10:28:22.725Z,3.90
2019-05-21T10:30:51.045Z,3.43
2019-05-21T10:33:19.352Z,4.53
2019-05-21T10:35:47.675Z,3.80
2019-05-21T10:38:16.005Z,3.67
2019-05-21T10:40:44.474Z,3.80
2019-05-21T10:43:13.130Z,3.83
2019-05-21T10:45:41.480Z,3.90
2019-05-21T10:48:10.184Z,3.77
2019-05-21T10:50:38.728Z,4.83
2019-05-21T10:53:07.103Z,3.90
2019-05-21T10:55:35.637Z,3.73
2019-05-21T10:58:04.030Z,3.60
2019-05-21T11:00:32.434Z,4.17
2019-05-21T11:03:05.617Z,4.17
2019-05-21T11:05:36.126Z,3.73
2019-05-21T11:08:22.822Z,3.97
2019-05-21T11:10:33.575Z,3.87
2019-05-21T11:13:02.041Z,3.80
2019-05-21T11:15:30.464Z,4.07
2019-05-21T11:18:10.651Z,4.37
2019-05-21T11:20:27.311Z,4.97
2019-05-21T11:22:58.308Z,4.77
2019-05-21T11:25:24.465Z,5.07
2019-05-21T11:27:52.801Z,4.67
2019-05-21T11:30:21.206Z,3.93
2019-05-21T11:32:49.943Z,4.33
2019-05-21T11:35:18.689Z,5.10
2019-05-21T11:37:48.048Z,3.87
2019-05-21T11:40:15.679Z,4.33
2019-05-21T11:42:44.288Z,4.10
2019-05-21T11:45:12.657Z,3.93
2019-05-21T11:47:41.198Z,3.90
2019-05-21T11:50:09.628Z,4.47
2019-05-21T11:52:37.974Z,3.80
2019-05-21T11:55:06.578Z,4.23
2019-05-21T11:57:34.941Z,4.33
2019-05-21T12:00:03.372Z,4.20
2019-05-21T12:02:31.770Z,4.43
2019-05-21T12:05:00.152Z,4.27
2019-05-21T12:07:28.483Z,4.57
2019-05-21T12:09:57.123Z,4.50
2019-05-21T12:12:25.480Z,4.17
2019-05-21T12:14:53.814Z,4.20
2019-05-21T12:17:22.295Z,4.43
2019-05-21T12:19:50.666Z,4.13
2019-05-21T12:22:19.078Z,4.47
2019-05-21T12:24:47.520Z,4.40
2019-05-21T12:27:15.926Z,4.43
2019-05-21T12:29:44.417Z,4.40
2019-05-21T12:32:12.796Z,4.70
2019-05-21T12:34:41.139Z,4.67
2019-05-21T12:37:09.718Z,4.63
2019-05-21T12:39:38.587Z,4.97
2019-05-21T12:42:06.961Z,4.93
2019-05-21T12:44:35.383Z,4.57
2019-05-21T12:47:03.909Z,5.87
2019-05-21T12:49:32.272Z,4.97
2019-05-21T12:52:00.711Z,5.93
2019-05-21T12:54:29.530Z,5.57
2019-05-21T12:56:57.976Z,5.17
2019-05-21T12:59:26.355Z,4.60
2019-05-21T13:01:54.830Z,5.37
2019-05-21T13:04:23.317Z,4.33
2019-05-21T13:06:51.711Z,4.30
2019-05-21T13:09:32.265Z,4.40
2019-05-21T13:11:48.486Z,4.30
2019-05-21T13:14:18.917Z,4.83
2019-05-21T13:16:45.313Z,4.87
2019-05-21T13:19:13.663Z,4.80
2019-05-21T13:21:48.708Z,4.97
2019-05-21T13:24:17.086Z,4.50
2019-05-21T13:26:45.471Z,4.70
2019-05-21T13:29:14.152Z,4.87
2019-05-21T13:31:42.515Z,4.80
2019-05-21T13:34:10.846Z,4.50
2019-05-21T13:36:39.205Z,4.20
2019-05-21T13:39:08.030Z,4.00
2019-05-21T13:41:36.353Z,4.63
2019-05-21T13:44:05.035Z,4.60
2019-05-21T13:46:35.628Z,4.10
2019-05-21T13:49:01.847Z,4.00
2019-05-21T13:51:30.317Z,4.00
2019-05-21T13:53:58.710Z,5.20
2019-05-21T13:56:27.034Z,4.47
2019-05-21T13:58:55.403Z,4.10
2019-05-21T14:01:39.202Z,4.27
2019-05-21T14:03:52.384Z,3.80
2019-05-21T14:06:20.698Z,3.90
2019-05-21T14:08:49.058Z,3.97
2019-05-21T14:11:17.460Z,5.00
2019-05-21T14:13:46.032Z,4.67
2019-05-21T14:16:14.412Z,3.83
2019-05-21T14:18:42.862Z,3.40
2019-05-21T14:21:11.287Z,3.90
2019-05-21T14:23:39.611Z,3.73
2019-05-21T14:26:08.030Z,3.70
2019-05-21T14:28:36.774Z,3.50
2019-05-21T14:31:05.696Z,3.57
2019-05-21T14:33:34.124Z,3.87
2019-05-21T14:36:02.562Z,3.73
2019-05-21T14:38:30.967Z,3.57
2019-05-21T14:40:59.315Z,3.67
2019-05-21T14:43:27.985Z,3.90
2019-05-21T14:45:56.276Z,3.70
2019-05-21T14:48:24.654Z,3.80
2019-05-21T14:50:53.034Z,3.93
2019-05-21T14:53:21.380Z,3.67
2019-05-21T14:55:49.722Z,3.70
2019-05-21T14:58:18.592Z,3.63
2019-05-21T15:00:46.975Z,3.33
2019-05-21T15:03:24.975Z,3.30
2019-05-21T15:05:44.007Z,3.30
2019-05-21T15:08:12.334Z,3.50
2019-05-21T15:10:48.432Z,3.67
2019-05-21T15:13:09.366Z,3.93
2019-05-21T15:15:37.759Z,3.97
2019-05-21T15:18:06.429Z,4.00
2019-05-21T15:20:44.817Z,3.90
2019-05-21T15:23:13.177Z,4.20
2019-05-21T15:25:41.598Z,3.83
2019-05-21T15:28:10.045Z,3.80
2019-05-21T15:30:38.418Z,3.60
2019-05-21T15:33:06.882Z,3.83
2019-05-21T15:35:35.728Z,3.47
2019-05-21T15:38:04.116Z,3.43
2019-05-21T15:40:32.533Z,3.90
2019-05-21T15:43:01.064Z,4.10
2019-05-21T15:45:29.431Z,3.70
2019-05-21T15:47:57.926Z,4.13
2019-05-21T15:50:26.919Z,3.73
2019-05-21T15:52:55.251Z,4.03
2019-05-21T15:55:23.624Z,4.03
2019-05-21T15:57:52.242Z,3.40
2019-05-21T16:00:20.664Z,3.80
2019-05-21T16:02:49.012Z,3.47
2019-05-21T16:05:17.802Z,3.90
2019-05-21T16:07:46.147Z,4.03
2019-05-21T16:10:14.501Z,4.43
2019-05-21T16:12:43.007Z,4.07
2019-05-21T16:15:11.406Z,3.97
2019-05-21T16:17:39.820Z,4.17
2019-05-21T16:20:09.160Z,3.60
2019-05-21T16:22:37.452Z,4.07
2019-05-21T16:25:05.815Z,4.40
2019-05-21T16:27:34.613Z,4.40
2019-05-21T16:30:03.044Z,4.03
2019-05-21T16:32:31.421Z,3.30
2019-05-21T16:35:00.388Z,3.70
2019-05-21T16:37:28.363Z,4.40
2019-05-21T16:39:56.716Z,4.50
2019-05-21T16:42:25.058Z,3.53
2019-05-21T16:44:53.416Z,4.00
2019-05-21T16:47:21.763Z,4.13
2019-05-21T16:49:50.103Z,3.70
2019-05-21T16:52:18.433Z,3.87
2019-05-21T16:54:46.785Z,3.90
2019-05-21T16:57:15.238Z,3.97
2019-05-21T16:59:43.624Z,3.83
2019-05-21T17:02:12.011Z,3.97
2019-05-21T17:04:40.910Z,3.90
2019-05-21T17:07:09.365Z,3.80
2019-05-21T17:09:37.788Z,4.80
2019-05-21T17:12:06.240Z,4.07
2019-05-21T17:14:34.580Z,4.07
2019-05-21T17:17:02.983Z,4.13
2019-05-21T17:19:31.294Z,4.93
2019-05-21T17:21:59.667Z,4.07
2019-05-21T17:24:28.061Z,4.17
2019-05-21T17:26:56.627Z,4.30
2019-05-21T17:29:24.965Z,4.10
2019-05-21T17:31:53.366Z,4.40
2019-05-21T17:34:21.891Z,3.83
2019-05-21T17:36:50.679Z,4.10
2019-05-21T17:39:19.016Z,3.70
2019-05-21T17:41:47.350Z,4.07
2019-05-21T17:44:15.681Z,4.37
2019-05-21T17:46:44.075Z,3.73
2019-05-21T17:49:12.775Z,4.00
2019-05-21T17:51:41.131Z,4.13
2019-05-21T17:54:09.459Z,3.87
2019-05-21T17:56:37.976Z,3.97
2019-05-21T17:59:06.355Z,4.60
2019-05-21T18:01:34.809Z,4.40
2019-05-21T18:04:03.313Z,4.67
2019-05-21T18:06:31.736Z,4.40
2019-05-21T18:09:00.132Z,4.30
2019-05-21T18:11:28.657Z,4.10
2019-05-21T18:13:57.071Z,4.17
2019-05-21T18:16:25.453Z,4.23
2019-05-21T18:18:53.942Z,4.40
2019-05-21T18:21:22.327Z,5.23
2019-05-21T18:23:51.102Z,5.40
2019-05-21T18:26:19.607Z,5.63
2019-05-21T18:28:47.978Z,4.97
2019-05-21T18:31:16.367Z,5.57
2019-05-21T18:33:44.949Z,5.67
2019-05-21T18:36:13.319Z,5.33
2019-05-21T18:38:41.679Z,5.43
2019-05-21T18:41:10.568Z,5.43
2019-05-21T18:43:38.936Z,5.60
2019-05-21T18:46:07.290Z,5.80
2019-05-21T18:48:36.011Z,5.20
2019-05-21T18:51:04.372Z,5.73
2019-05-21T18:53:32.706Z,5.83
2019-05-21T18:56:01.314Z,5.70
2019-05-21T18:58:29.650Z,5.27
2019-05-21T19:00:57.978Z,5.43
2019-05-21T19:03:26.794Z,7.57
2019-05-21T19:05:55.112Z,5.77
2019-05-21T19:08:23.505Z,5.70
2019-05-21T19:10:52.037Z,6.03
2019-05-21T19:13:20.433Z,5.67
2019-05-21T19:15:48.821Z,5.83
2019-05-21T19:18:17.187Z,6.20
2019-05-21T19:20:45.863Z,5.77
2019-05-21T19:23:14.196Z,5.73
2019-05-21T19:25:42.778Z,5.60
2019-05-21T19:28:11.172Z,5.53
2019-05-21T19:30:39.533Z,5.70
2019-05-21T19:33:08.062Z,6.37
2019-05-21T19:35:36.439Z,5.30
2019-05-21T19:38:04.778Z,5.97
2019-05-21T19:40:33.355Z,6.40
2019-05-21T19:43:01.977Z,5.90
2019-05-21T19:45:31.447Z,6.03
2019-05-21T19:47:59.107Z,5.80
2019-05-21T19:50:27.464Z,5.80
2019-05-21T19:52:55.794Z,7.00
2019-05-21T19:55:24.536Z,6.10
2019-05-21T19:57:52.897Z,5.70
2019-05-21T20:00:21.378Z,6.17
2019-05-21T20:02:49.829Z,6.00
2019-05-21T20:05:18.179Z,5.90
2019-05-21T20:07:46.571Z,5.93
2019-05-21T20:10:15.170Z,5.87
2019-05-21T20:12:43.595Z,6.00
2019-05-21T20:15:12.236Z,6.30
2019-05-21T20:17:41.191Z,6.17
2019-05-21T20:20:09.606Z,6.20
2019-05-21T20:22:38.337Z,7.13
2019-05-21T20:25:06.864Z,5.90
2019-05-21T20:27:35.536Z,5.80
2019-05-21T20:30:12.626Z,5.83
2019-05-21T20:32:32.892Z,6.60
2019-05-21T20:35:01.285Z,5.93
2019-05-21T20:37:30.111Z,5.90
2019-05-21T20:39:58.652Z,6.77
2019-05-21T20:42:27.484Z,5.70
2019-05-21T20:44:55.880Z,6.20
2019-05-21T20:47:25.306Z,6.70
2019-05-21T20:49:53.675Z,6.53
2019-05-21T20:52:22.065Z,6.03
2019-05-21T20:54:51.737Z,5.83
2019-05-21T20:57:20.145Z,6.83
2019-05-21T20:59:48.522Z,6.03
2019-05-21T21:02:17.055Z,6.20
2019-05-21T21:04:45.473Z,6.63
2019-05-21T21:07:13.847Z,7.00
2019-05-21T21:09:42.322Z,6.30
2019-05-21T21:12:10.844Z,6.77
2019-05-21T21:14:39.201Z,6.80
2019-05-21T21:17:08.252Z,6.27
2019-05-21T21:19:36.676Z,7.70
2019-05-21T21:22:05.318Z,6.87
2019-05-21T21:24:34.002Z,6.50
2019-05-21T21:27:02.431Z,7.37
2019-05-21T21:29:30.776Z,7.57
2019-05-21T21:31:59.340Z,7.10
2019-05-21T21:34:27.714Z,7.00
2019-05-21T21:36:56.147Z,6.83
2019-05-21T21:39:25.057Z,7.43
2019-05-21T21:41:53.423Z,6.97
2019-05-21T21:44:33.604Z,7.07
2019-05-21T21:46:50.343Z,7.30
2019-05-21T21:49:18.929Z,7.17
2019-05-21T21:51:47.394Z,7.77
2019-05-21T21:54:15.831Z,7.97
2019-05-21T21:56:44.268Z,7.93
2019-05-21T21:59:12.616Z,7.90
2019-05-21T22:01:47.673Z,7.87
2019-05-21T22:04:16.661Z,7.07
2019-05-21T22:06:45.070Z,7.73
2019-05-21T22:09:17.323Z,7.53
2019-05-21T22:11:52.835Z,7.53
2019-05-21T22:14:21.544Z,7.30
2019-05-21T22:16:51.762Z,8.33
2019-05-21T22:19:18.638Z,8.10
2019-05-21T22:21:47.024Z,7.53
2019-05-21T22:24:15.469Z,7.67
2019-05-21T22:26:43.867Z,7.73
2019-05-21T22:29:12.331Z,7.80
2019-05-21T22:31:41.019Z,8.40
2019-05-21T22:34:09.494Z,7.87
2019-05-21T22:36:38.034Z,8.17
2019-05-21T22:39:08.313Z,7.90
2019-05-21T22:41:36.695Z,8.33
2019-05-21T22:44:05.178Z,7.30
2019-05-21T22:46:33.553Z,8.37
2019-05-21T22:49:02.020Z,8.47
2019-05-21T22:51:30.763Z,8.10
2019-05-21T22:53:59.104Z,8.60
2019-05-21T22:56:27.458Z,8.50
2019-05-21T22:58:56.202Z,8.73
2019-05-21T23:01:24.645Z,8.73
2019-05-21T23:03:52.978Z,8.87
2019-05-21T23:06:21.797Z,8.30
2019-05-21T23:08:50.164Z,7.93
2019-05-21T23:11:18.480Z,7.80
2019-05-21T23:13:47.240Z,7.67
2019-05-21T23:16:15.602Z,8.07
2019-05-21T23:18:43.999Z,8.50
2019-05-21T23:21:12.540Z,8.00
2019-05-21T23:23:40.960Z,8.27
2019-05-21T23:26:09.344Z,7.97
2019-05-21T23:28:37.827Z,8.93
2019-05-21T23:31:06.604Z,8.40
2019-05-21T23:33:35.522Z,7.83
2019-05-21T23:36:04.652Z,8.50
2019-05-21T23:38:33.054Z,8.33
2019-05-21T23:41:01.489Z,8.17
2019-05-21T23:43:30.131Z,8.13
2019-05-21T23:45:58.511Z,8.13
2019-05-21T23:48:26.991Z,8.50
2019-05-21T23:50:55.369Z,7.80
2019-05-21T23:53:23.788Z,8.50
2019-05-21T23:55:52.131Z,7.87
2019-05-21T23:58:20.821Z,8.77
